sensor_id;sensor_type;location;lat;lon;timestamp;pressure;altitude;pressure_sealevel;temperature;humidity
43071;BME280;36278;47.952;21.714;2022-07-23T00:01:29;100292.50;;;24.61;55.92
43071;BME280;36278;47.952;21.714;2022-07-23T00:03:55;100287.50;;;24.65;55.32
43071;BME280;36278;47.952;21.714;2022-07-23T00:06:22;100295.00;;;24.63;54.56
43071;BME280;36278;47.952;21.714;2022-07-23T00:08:49;100298.97;;;24.60;54.52
43071;BME280;36278;47.952;21.714;2022-07-23T00:11:14;100283.53;;;24.54;54.71
43071;BME280;36278;47.952;21.714;2022-07-23T00:13:40;100286.03;;;24.55;54.66
43071;BME280;36278;47.952;21.714;2022-07-23T00:16:05;100294.38;;;24.54;55.24
43071;BME280;36278;47.952;21.714;2022-07-23T00:18:31;100294.16;;;24.49;55.52
43071;BME280;36278;47.952;21.714;2022-07-23T00:20:56;100296.03;;;24.48;55.71
43071;BME280;36278;47.952;21.714;2022-07-23T00:23:22;100291.25;;;24.44;56.26
43071;BME280;36278;47.952;21.714;2022-07-23T00:25:47;100298.94;;;24.40;56.81
43071;BME280;36278;47.952;21.714;2022-07-23T00:28:13;100294.56;;;24.39;56.39
43071;BME280;36278;47.952;21.714;2022-07-23T00:30:39;100295.00;;;24.36;56.53
43071;BME280;36278;47.952;21.714;2022-07-23T00:33:07;100298.25;;;24.25;57.23
43071;BME280;36278;47.952;21.714;2022-07-23T00:35:37;100303.84;;;24.17;57.90
43071;BME280;36278;47.952;21.714;2022-07-23T00:38:05;100300.94;;;24.12;57.77
43071;BME280;36278;47.952;21.714;2022-07-23T00:40:31;100296.56;;;24.11;56.73
43071;BME280;36278;47.952;21.714;2022-07-23T00:42:57;100303.44;;;24.13;56.43
43071;BME280;36278;47.952;21.714;2022-07-23T00:45:24;100301.97;;;24.11;56.16
43071;BME280;36278;47.952;21.714;2022-07-23T00:47:50;100297.41;;;24.11;56.67
43071;BME280;36278;47.952;21.714;2022-07-23T00:50:15;100300.75;;;24.13;56.64
43071;BME280;36278;47.952;21.714;2022-07-23T00:52:41;100299.91;;;24.13;55.74
43071;BME280;36278;47.952;21.714;2022-07-23T00:55:08;100299.06;;;24.05;56.28
43071;BME280;36278;47.952;21.714;2022-07-23T00:57:35;100305.72;;;24.03;56.17
43071;BME280;36278;47.952;21.714;2022-07-23T01:00:01;100298.63;;;24.02;56.37
43071;BME280;36278;47.952;21.714;2022-07-23T01:02:27;100291.97;;;23.98;56.55
43071;BME280;36278;47.952;21.714;2022-07-23T01:04:53;100299.44;;;23.96;56.69
43071;BME280;36278;47.952;21.714;2022-07-23T01:07:19;100291.13;;;23.97;56.75
43071;BME280;36278;47.952;21.714;2022-07-23T01:09:45;100289.47;;;23.96;56.25
43071;BME280;36278;47.952;21.714;2022-07-23T01:12:12;100293.38;;;23.94;55.54
43071;BME280;36278;47.952;21.714;2022-07-23T01:14:37;100294.88;;;23.96;54.93
43071;BME280;36278;47.952;21.714;2022-07-23T01:17:04;100301.13;;;23.97;55.16
43071;BME280;36278;47.952;21.714;2022-07-23T01:19:30;100303.63;;;23.98;55.51
43071;BME280;36278;47.952;21.714;2022-07-23T01:21:57;100296.75;;;23.96;55.25
43071;BME280;36278;47.952;21.714;2022-07-23T01:24:23;100293.22;;;23.95;55.72
43071;BME280;36278;47.952;21.714;2022-07-23T01:26:49;100285.94;;;23.96;55.07
43071;BME280;36278;47.952;21.714;2022-07-23T01:29:16;100293.38;;;23.94;55.54
43071;BME280;36278;47.952;21.714;2022-07-23T01:31:42;100289.84;;;23.87;55.06
43071;BME280;36278;47.952;21.714;2022-07-23T01:34:07;100296.09;;;23.87;54.79
43071;BME280;36278;47.952;21.714;2022-07-23T01:36:34;100289.84;;;23.87;55.10
43071;BME280;36278;47.952;21.714;2022-07-23T01:38:59;100292.75;;;23.85;55.00
43071;BME280;36278;47.952;21.714;2022-07-23T01:41:25;100287.97;;;23.87;54.27
43071;BME280;36278;47.952;21.714;2022-07-23T01:43:50;100288.38;;;23.84;54.03
43071;BME280;36278;47.952;21.714;2022-07-23T01:46:16;100286.09;;;23.81;55.06
43071;BME280;36278;47.952;21.714;2022-07-23T01:48:41;100292.53;;;23.80;54.91
43071;BME280;36278;47.952;21.714;2022-07-23T01:51:07;100292.91;;;23.77;54.84
43071;BME280;36278;47.952;21.714;2022-07-23T01:53:32;100292.72;;;23.72;55.15
43071;BME280;36278;47.952;21.714;2022-07-23T01:55:58;100288.94;;;23.66;55.41
43071;BME280;36278;47.952;21.714;2022-07-23T01:58:25;100288.91;;;23.60;55.22
43071;BME280;36278;47.952;21.714;2022-07-23T02:00:50;100277.00;;;23.54;55.41
43071;BME280;36278;47.952;21.714;2022-07-23T02:03:17;100283.00;;;23.49;55.47
43071;BME280;36278;47.952;21.714;2022-07-23T02:05:43;100280.09;;;23.51;55.93
43071;BME280;36278;47.952;21.714;2022-07-23T02:08:08;100278.19;;;23.38;55.78
43071;BME280;36278;47.952;21.714;2022-07-23T02:10:34;100277.31;;;23.31;55.81
43071;BME280;36278;47.952;21.714;2022-07-23T02:12:59;100273.31;;;23.27;56.46
43071;BME280;36278;47.952;21.714;2022-07-23T02:15:25;100275.56;;;23.17;56.41
43071;BME280;36278;47.952;21.714;2022-07-23T02:17:50;100276.81;;;23.14;56.46
43071;BME280;36278;47.952;21.714;2022-07-23T02:20:15;100280.91;;;23.10;56.89
43071;BME280;36278;47.952;21.714;2022-07-23T02:22:41;100274.69;;;23.10;56.92
43071;BME280;36278;47.952;21.714;2022-07-23T02:25:07;100274.88;;;23.08;57.62
43071;BME280;36278;47.952;21.714;2022-07-23T02:27:33;100276.56;;;23.09;57.21
43071;BME280;36278;47.952;21.714;2022-07-23T02:29:59;100273.41;;;23.06;57.32
43071;BME280;36278;47.952;21.714;2022-07-23T02:32:25;100274.06;;;23.08;57.15
43071;BME280;36278;47.952;21.714;2022-07-23T02:34:51;100274.63;;;23.03;57.29
43071;BME280;36278;47.952;21.714;2022-07-23T02:37:17;100277.38;;;23.10;56.66
43071;BME280;36278;47.952;21.714;2022-07-23T02:39:42;100279.28;;;23.16;56.45
43071;BME280;36278;47.952;21.714;2022-07-23T02:42:08;100282.88;;;23.23;56.27
43071;BME280;36278;47.952;21.714;2022-07-23T02:44:34;100284.53;;;23.24;56.06
43071;BME280;36278;47.952;21.714;2022-07-23T02:46:59;100282.91;;;23.30;56.06
43071;BME280;36278;47.952;21.714;2022-07-23T02:49:25;100278.34;;;23.30;55.43
43071;BME280;36278;47.952;21.714;2022-07-23T02:51:50;100287.66;;;23.28;55.38
43071;BME280;36278;47.952;21.714;2022-07-23T02:54:16;100287.81;;;23.19;56.13
43071;BME280;36278;47.952;21.714;2022-07-23T02:56:42;100290.31;;;23.14;56.16
43071;BME280;36278;47.952;21.714;2022-07-23T02:59:08;100294.22;;;23.05;56.29
43071;BME280;36278;47.952;21.714;2022-07-23T03:01:34;100303.28;;;22.98;56.42
43071;BME280;36278;47.952;21.714;2022-07-23T03:04:00;100298.28;;;22.94;56.74
43071;BME280;36278;47.952;21.714;2022-07-23T03:06:25;100303.66;;;22.94;56.66
43071;BME280;36278;47.952;21.714;2022-07-23T03:08:51;100299.50;;;22.92;57.29
43071;BME280;36278;47.952;21.714;2022-07-23T03:11:17;100291.97;;;22.87;56.96
43071;BME280;36278;47.952;21.714;2022-07-23T03:13:42;100302.06;;;22.79;57.10
43071;BME280;36278;47.952;21.714;2022-07-23T03:16:08;100307.66;;;22.77;57.50
43071;BME280;36278;47.952;21.714;2022-07-23T03:18:33;100301.84;;;22.74;57.78
43071;BME280;36278;47.952;21.714;2022-07-23T03:20:59;100301.63;;;22.75;57.47
43071;BME280;36278;47.952;21.714;2022-07-23T03:23:24;100301.63;;;22.75;58.16
43071;BME280;36278;47.952;21.714;2022-07-23T03:25:50;100306.56;;;22.72;58.08
43071;BME280;36278;47.952;21.714;2022-07-23T03:28:16;100296.59;;;22.72;58.00
43071;BME280;36278;47.952;21.714;2022-07-23T03:30:43;100310.56;;;22.76;57.69
43071;BME280;36278;47.952;21.714;2022-07-23T03:33:08;100303.34;;;22.83;57.67
43071;BME280;36278;47.952;21.714;2022-07-23T03:35:34;100302.16;;;22.85;57.88
43071;BME280;36278;47.952;21.714;2022-07-23T03:37:59;100303.03;;;22.92;56.78
43071;BME280;36278;47.952;21.714;2022-07-23T03:40:24;100299.09;;;22.95;56.76
43071;BME280;36278;47.952;21.714;2022-07-23T03:42:50;100302.88;;;23.01;56.74
43071;BME280;36278;47.952;21.714;2022-07-23T03:45:16;100305.00;;;23.05;56.59
43071;BME280;36278;47.952;21.714;2022-07-23T03:47:41;100303.16;;;23.06;56.33
43071;BME280;36278;47.952;21.714;2022-07-23T03:50:08;100304.00;;;23.13;56.32
43071;BME280;36278;47.952;21.714;2022-07-23T03:52:34;100300.28;;;23.14;56.25
43071;BME280;36278;47.952;21.714;2022-07-23T03:54:59;100300.72;;;23.17;56.52
43071;BME280;36278;47.952;21.714;2022-07-23T03:57:25;100301.13;;;23.14;56.46
43071;BME280;36278;47.952;21.714;2022-07-23T03:59:50;100304.25;;;23.18;56.27
43071;BME280;36278;47.952;21.714;2022-07-23T04:02:16;100303.47;;;23.24;56.15
43071;BME280;36278;47.952;21.714;2022-07-23T04:04:41;100306.38;;;23.29;56.33
43071;BME280;36278;47.952;21.714;2022-07-23T04:07:07;100307.88;;;23.32;56.05
43071;BME280;36278;47.952;21.714;2022-07-23T04:09:33;100297.44;;;23.29;55.94
43071;BME280;36278;47.952;21.714;2022-07-23T04:11:59;100308.50;;;23.34;56.13
43071;BME280;36278;47.952;21.714;2022-07-23T04:14:25;100300.81;;;23.37;56.42
43071;BME280;36278;47.952;21.714;2022-07-23T04:16:51;100290.88;;;23.38;55.89
43071;BME280;36278;47.952;21.714;2022-07-23T04:19:16;100295.44;;;23.44;55.80
43071;BME280;36278;47.952;21.714;2022-07-23T04:21:42;100301.94;;;23.49;55.90
43071;BME280;36278;47.952;21.714;2022-07-23T04:24:07;100311.13;;;23.55;56.01
43071;BME280;36278;47.952;21.714;2022-07-23T04:26:32;100298.81;;;23.53;55.83
43071;BME280;36278;47.952;21.714;2022-07-23T04:28:58;100304.47;;;23.58;55.82
43071;BME280;36278;47.952;21.714;2022-07-23T04:31:23;100300.34;;;23.62;55.78
43071;BME280;36278;47.952;21.714;2022-07-23T04:33:49;100297.25;;;23.65;55.90
43071;BME280;36278;47.952;21.714;2022-07-23T04:36:14;100302.28;;;23.74;55.59
43071;BME280;36278;47.952;21.714;2022-07-23T04:38:40;100298.97;;;23.79;55.84
43071;BME280;36278;47.952;21.714;2022-07-23T04:41:05;100294.81;;;23.83;55.61
43071;BME280;36278;47.952;21.714;2022-07-23T04:43:31;100306.28;;;23.92;55.81
43071;BME280;36278;47.952;21.714;2022-07-23T04:45:56;100301.91;;;23.91;55.65
43071;BME280;36278;47.952;21.714;2022-07-23T04:48:21;100305.69;;;23.96;55.99
43071;BME280;36278;47.952;21.714;2022-07-23T04:50:47;100304.22;;;24.00;55.91
43071;BME280;36278;47.952;21.714;2022-07-23T04:53:12;100292.16;;;23.96;55.64
43071;BME280;36278;47.952;21.714;2022-07-23T04:55:38;100291.91;;;23.85;55.85
43071;BME280;36278;47.952;21.714;2022-07-23T04:58:03;100297.75;;;23.88;55.98
43071;BME280;36278;47.952;21.714;2022-07-23T05:00:29;100306.09;;;23.93;56.05
43071;BME280;36278;47.952;21.714;2022-07-23T05:02:54;100295.47;;;23.92;55.99
43071;BME280;36278;47.952;21.714;2022-07-23T05:05:20;100316.97;;;24.07;55.59
43071;BME280;36278;47.952;21.714;2022-07-23T05:07:45;100296.34;;;24.05;55.92
43071;BME280;36278;47.952;21.714;2022-07-23T05:10:11;100290.88;;;23.86;55.79
43071;BME280;36278;47.952;21.714;2022-07-23T05:12:36;100296.75;;;24.02;56.04
43071;BME280;36278;47.952;21.714;2022-07-23T05:15:02;100294.25;;;24.01;55.53
43071;BME280;36278;47.952;21.714;2022-07-23T05:17:27;100299.69;;;24.08;55.54
43071;BME280;36278;47.952;21.714;2022-07-23T05:19:53;100297.63;;;24.16;55.55
43071;BME280;36278;47.952;21.714;2022-07-23T05:22:18;100301.56;;;24.14;57.06
43071;BME280;36278;47.952;21.714;2022-07-23T05:24:44;100310.09;;;24.11;55.90
43071;BME280;36278;47.952;21.714;2022-07-23T05:27:09;100303.03;;;24.23;55.67
43071;BME280;36278;47.952;21.714;2022-07-23T05:29:35;100307.84;;;24.27;55.37
43071;BME280;36278;47.952;21.714;2022-07-23T05:32:00;100305.41;;;24.39;55.47
43071;BME280;36278;47.952;21.714;2022-07-23T05:34:25;100317.47;;;24.43;54.76
43071;BME280;36278;47.952;21.714;2022-07-23T05:36:51;100319.38;;;24.56;54.56
43071;BME280;36278;47.952;21.714;2022-07-23T05:39:16;100333.97;;;24.68;55.25
43071;BME280;36278;47.952;21.714;2022-07-23T05:41:42;100331.06;;;24.76;55.56
43071;BME280;36278;47.952;21.714;2022-07-23T05:44:07;100327.50;;;24.69;55.67
43071;BME280;36278;47.952;21.714;2022-07-23T05:46:32;100322.06;;;24.56;55.15
43071;BME280;36278;47.952;21.714;2022-07-23T05:48:58;100328.75;;;24.67;55.67
43071;BME280;36278;47.952;21.714;2022-07-23T05:51:24;100330.00;;;24.91;55.13
43071;BME280;36278;47.952;21.714;2022-07-23T05:53:50;100324.16;;;25.07;54.24
43071;BME280;36278;47.952;21.714;2022-07-23T05:56:16;100324.78;;;25.15;54.43
43071;BME280;36278;47.952;21.714;2022-07-23T05:58:42;100327.03;;;25.32;53.60
43071;BME280;36278;47.952;21.714;2022-07-23T06:01:08;100318.66;;;25.47;53.14
43071;BME280;36278;47.952;21.714;2022-07-23T06:03:33;100323.00;;;25.61;52.93
43071;BME280;36278;47.952;21.714;2022-07-23T06:05:59;100318.59;;;25.73;53.04
43071;BME280;36278;47.952;21.714;2022-07-23T06:08:24;100308.97;;;25.84;52.53
43071;BME280;36278;47.952;21.714;2022-07-23T06:10:50;100317.47;;;25.94;52.30
43071;BME280;36278;47.952;21.714;2022-07-23T06:13:18;100317.00;;;26.04;51.75
43071;BME280;36278;47.952;21.714;2022-07-23T06:15:43;100321.63;;;25.96;52.08
43071;BME280;36278;47.952;21.714;2022-07-23T06:18:09;100318.03;;;26.09;52.33
43071;BME280;36278;47.952;21.714;2022-07-23T06:20:34;100320.28;;;26.12;51.86
43071;BME280;36278;47.952;21.714;2022-07-23T06:23:00;100318.56;;;26.24;51.85
43071;BME280;36278;47.952;21.714;2022-07-23T06:25:25;100321.84;;;26.33;51.56
43071;BME280;36278;47.952;21.714;2022-07-23T06:27:51;100320.19;;;26.32;51.55
43071;BME280;36278;47.952;21.714;2022-07-23T06:30:16;100313.00;;;26.44;51.85
43071;BME280;36278;47.952;21.714;2022-07-23T06:32:42;100311.41;;;26.62;51.20
43071;BME280;36278;47.952;21.714;2022-07-23T06:35:08;100309.22;;;26.77;50.52
43071;BME280;36278;47.952;21.714;2022-07-23T06:37:33;100310.75;;;26.91;49.83
43071;BME280;36278;47.952;21.714;2022-07-23T06:39:59;100305.25;;;27.04;49.47
43071;BME280;36278;47.952;21.714;2022-07-23T06:42:24;100306.97;;;27.17;49.24
43071;BME280;36278;47.952;21.714;2022-07-23T06:44:50;100308.28;;;27.15;49.67
43071;BME280;36278;47.952;21.714;2022-07-23T06:47:15;100305.63;;;27.26;48.63
43071;BME280;36278;47.952;21.714;2022-07-23T06:49:41;100309.25;;;27.20;48.21
43071;BME280;36278;47.952;21.714;2022-07-23T06:52:07;100305.78;;;27.31;48.47
43071;BME280;36278;47.952;21.714;2022-07-23T06:54:33;100306.16;;;27.35;47.97
43071;BME280;36278;47.952;21.714;2022-07-23T06:56:58;100308.50;;;27.50;48.17
43071;BME280;36278;47.952;21.714;2022-07-23T06:59:23;100310.69;;;27.59;48.20
43071;BME280;36278;47.952;21.714;2022-07-23T07:01:49;100297.78;;;27.73;47.67
43071;BME280;36278;47.952;21.714;2022-07-23T07:04:15;100304.66;;;27.94;47.12
43071;BME280;36278;47.952;21.714;2022-07-23T07:06:40;100302.31;;;28.09;46.90
43071;BME280;36278;47.952;21.714;2022-07-23T07:09:06;100297.16;;;28.19;46.44
43071;BME280;36278;47.952;21.714;2022-07-23T07:11:31;100299.00;;;28.37;46.06
43071;BME280;36278;47.952;21.714;2022-07-23T07:13:57;100300.34;;;28.46;45.52
43071;BME280;36278;47.952;21.714;2022-07-23T07:16:22;100302.47;;;28.56;45.55
43071;BME280;36278;47.952;21.714;2022-07-23T07:18:48;100298.47;;;28.70;45.43
43071;BME280;36278;47.952;21.714;2022-07-23T07:21:13;100303.44;;;28.73;46.38
43071;BME280;36278;47.952;21.714;2022-07-23T07:23:39;100301.91;;;28.66;45.87
43071;BME280;36278;47.952;21.714;2022-07-23T07:26:04;100296.56;;;28.71;45.10
43071;BME280;36278;47.952;21.714;2022-07-23T07:28:30;100300.06;;;28.90;44.72
43071;BME280;36278;47.952;21.714;2022-07-23T07:30:55;100305.88;;;28.93;44.31
43071;BME280;36278;47.952;21.714;2022-07-23T07:33:21;100293.63;;;29.08;44.42
43071;BME280;36278;47.952;21.714;2022-07-23T07:35:47;100299.56;;;29.28;43.97
43071;BME280;36278;47.952;21.714;2022-07-23T07:38:12;100300.41;;;29.28;43.94
43071;BME280;36278;47.952;21.714;2022-07-23T07:40:37;100301.81;;;29.31;44.00
43071;BME280;36278;47.952;21.714;2022-07-23T07:43:03;100300.47;;;29.45;43.57
43071;BME280;36278;47.952;21.714;2022-07-23T07:45:29;100300.00;;;29.60;43.66
43071;BME280;36278;47.952;21.714;2022-07-23T07:47:54;100300.91;;;29.77;42.92
43071;BME280;36278;47.952;21.714;2022-07-23T07:50:21;100304.47;;;29.78;42.68
43071;BME280;36278;47.952;21.714;2022-07-23T07:52:47;100303.13;;;29.92;43.20
43071;BME280;36278;47.952;21.714;2022-07-23T07:55:12;100301.97;;;30.05;43.01
43071;BME280;36278;47.952;21.714;2022-07-23T07:57:38;100305.16;;;30.13;42.25
43071;BME280;36278;47.952;21.714;2022-07-23T08:00:06;100309.91;;;30.18;42.30
43071;BME280;36278;47.952;21.714;2022-07-23T08:02:54;100299.34;;;30.38;42.33
43071;BME280;36278;47.952;21.714;2022-07-23T08:05:25;100304.84;;;30.55;42.52
43071;BME280;36278;47.952;21.714;2022-07-23T08:07:51;100300.69;;;30.69;41.21
43071;BME280;36278;47.952;21.714;2022-07-23T08:10:17;100294.09;;;30.82;41.01
43071;BME280;36278;47.952;21.714;2022-07-23T08:12:45;100298.97;;;30.97;41.01
43071;BME280;36278;47.952;21.714;2022-07-23T08:15:16;100296.06;;;31.04;41.17
43071;BME280;36278;47.952;21.714;2022-07-23T08:17:43;100296.75;;;31.16;40.67
43071;BME280;36278;47.952;21.714;2022-07-23T08:20:10;100297.44;;;31.23;40.71
43071;BME280;36278;47.952;21.714;2022-07-23T08:22:58;100290.53;;;31.37;40.20
43071;BME280;36278;47.952;21.714;2022-07-23T08:25:29;100286.66;;;31.55;39.43
43071;BME280;36278;47.952;21.714;2022-07-23T08:27:57;100284.03;;;31.65;38.50
43071;BME280;36278;47.952;21.714;2022-07-23T08:30:23;100281.53;;;31.64;38.21
43071;BME280;36278;47.952;21.714;2022-07-23T08:35:14;100283.56;;;31.95;38.37
43071;BME280;36278;47.952;21.714;2022-07-23T08:37:40;100281.75;;;32.06;38.25
43071;BME280;36278;47.952;21.714;2022-07-23T08:40:05;100280.19;;;32.15;38.03
43071;BME280;36278;47.952;21.714;2022-07-23T08:42:32;100276.50;;;32.26;36.73
43071;BME280;36278;47.952;21.714;2022-07-23T08:45:02;100277.47;;;32.15;37.11
43071;BME280;36278;47.952;21.714;2022-07-23T08:47:28;100267.72;;;32.29;36.82
43071;BME280;36278;47.952;21.714;2022-07-23T08:49:56;100263.28;;;32.50;37.59
43071;BME280;36278;47.952;21.714;2022-07-23T08:52:22;100262.28;;;32.61;37.37
43071;BME280;36278;47.952;21.714;2022-07-23T08:54:48;100259.25;;;32.63;37.48
43071;BME280;36278;47.952;21.714;2022-07-23T08:57:14;100264.94;;;32.88;36.69
43071;BME280;36278;47.952;21.714;2022-07-23T08:59:41;100254.88;;;32.99;36.16
43071;BME280;36278;47.952;21.714;2022-07-23T09:02:06;100263.19;;;33.14;35.64
43071;BME280;36278;47.952;21.714;2022-07-23T09:04:32;100258.53;;;33.20;34.88
43071;BME280;36278;47.952;21.714;2022-07-23T09:06:57;100253.44;;;33.39;33.85
43071;BME280;36278;47.952;21.714;2022-07-23T09:09:23;100259.81;;;33.50;34.49
43071;BME280;36278;47.952;21.714;2022-07-23T09:12:05;100267.28;;;33.69;34.16
43071;BME280;36278;47.952;21.714;2022-07-23T09:14:44;100260.69;;;33.65;33.34
43071;BME280;36278;47.952;21.714;2022-07-23T09:17:16;100257.13;;;33.80;33.35
43071;BME280;36278;47.952;21.714;2022-07-23T09:19:42;100258.78;;;33.66;33.71
43071;BME280;36278;47.952;21.714;2022-07-23T09:22:23;100247.53;;;33.88;33.45
43071;BME280;36278;47.952;21.714;2022-07-23T09:28:05;100244.59;;;34.20;32.09
43071;BME280;36278;47.952;21.714;2022-07-23T09:30:32;100235.53;;;34.45;32.54
43071;BME280;36278;47.952;21.714;2022-07-23T09:33:07;100235.53;;;34.65;31.09
43071;BME280;36278;47.952;21.714;2022-07-23T09:35:54;100236.59;;;34.84;31.42
43071;BME280;36278;47.952;21.714;2022-07-23T09:38:22;100238.53;;;34.99;31.09
43071;BME280;36278;47.952;21.714;2022-07-23T09:41:05;100236.53;;;35.10;31.74
43071;BME280;36278;47.952;21.714;2022-07-23T09:43:31;100236.34;;;34.76;30.88
43071;BME280;36278;47.952;21.714;2022-07-23T09:46:21;100234.91;;;35.09;31.21
43071;BME280;36278;47.952;21.714;2022-07-23T09:48:48;100234.03;;;35.19;29.87
43071;BME280;36278;47.952;21.714;2022-07-23T09:51:13;100226.28;;;35.31;29.76
43071;BME280;36278;47.952;21.714;2022-07-23T09:53:57;100230.13;;;35.45;30.65
43071;BME280;36278;47.952;21.714;2022-07-23T09:56:23;100227.00;;;35.57;30.67
43071;BME280;36278;47.952;21.714;2022-07-23T09:58:50;100228.34;;;35.70;30.55
43071;BME280;36278;47.952;21.714;2022-07-23T10:01:31;100217.81;;;35.77;29.86
43071;BME280;36278;47.952;21.714;2022-07-23T10:03:57;100225.75;;;35.83;29.01
43071;BME280;36278;47.952;21.714;2022-07-23T10:06:23;100217.75;;;35.87;29.42
43071;BME280;36278;47.952;21.714;2022-07-23T10:08:50;100218.31;;;35.89;29.31
43071;BME280;36278;47.952;21.714;2022-07-23T10:11:16;100221.19;;;35.69;29.97
43071;BME280;36278;47.952;21.714;2022-07-23T10:13:42;100206.97;;;35.41;29.64
43071;BME280;36278;47.952;21.714;2022-07-23T10:16:18;100207.06;;;35.10;29.84
43071;BME280;36278;47.952;21.714;2022-07-23T10:18:44;100205.75;;;35.03;30.04
43071;BME280;36278;47.952;21.714;2022-07-23T10:21:10;100201.50;;;35.26;30.41
43071;BME280;36278;47.952;21.714;2022-07-23T10:23:47;100202.56;;;35.35;30.01
43071;BME280;36278;47.952;21.714;2022-07-23T10:26:19;100207.78;;;35.47;29.84
43071;BME280;36278;47.952;21.714;2022-07-23T10:31:38;100196.06;;;35.10;30.34
43071;BME280;36278;47.952;21.714;2022-07-23T10:34:21;100196.56;;;35.23;31.28
43071;BME280;36278;47.952;21.714;2022-07-23T10:36:58;100193.44;;;35.50;30.13
43071;BME280;36278;47.952;21.714;2022-07-23T10:39:34;100188.56;;;35.76;29.15
43071;BME280;36278;47.952;21.714;2022-07-23T10:44:42;100190.50;;;35.80;28.75
43071;BME280;36278;47.952;21.714;2022-07-23T10:47:10;100179.78;;;35.74;29.25
43071;BME280;36278;47.952;21.714;2022-07-23T10:49:44;100180.72;;;35.98;29.43
43071;BME280;36278;47.952;21.714;2022-07-23T10:54:42;100186.63;;;36.20;28.65
43071;BME280;36278;47.952;21.714;2022-07-23T10:57:09;100178.06;;;36.22;28.44
43071;BME280;36278;47.952;21.714;2022-07-23T11:02:29;100174.44;;;36.27;28.86
43071;BME280;36278;47.952;21.714;2022-07-23T11:04:59;100180.44;;;36.34;28.19
43071;BME280;36278;47.952;21.714;2022-07-23T11:07:25;100177.31;;;36.45;28.61
43071;BME280;36278;47.952;21.714;2022-07-23T11:09:51;100170.16;;;36.44;28.34
43071;BME280;36278;47.952;21.714;2022-07-23T11:15:09;100170.09;;;36.49;28.09
43071;BME280;36278;47.952;21.714;2022-07-23T11:17:39;100172.34;;;36.71;27.79
43071;BME280;36278;47.952;21.714;2022-07-23T11:20:23;100177.72;;;36.87;27.31
43071;BME280;36278;47.952;21.714;2022-07-23T11:22:55;100170.25;;;36.87;27.78
43071;BME280;36278;47.952;21.714;2022-07-23T11:27:48;100156.34;;;37.40;27.46
43071;BME280;36278;47.952;21.714;2022-07-23T11:32:52;100151.78;;;37.68;26.08
43071;BME280;36278;47.952;21.714;2022-07-23T11:37:45;100138.19;;;37.53;27.17
43071;BME280;36278;47.952;21.714;2022-07-23T11:40:14;100134.88;;;37.70;26.30
43071;BME280;36278;47.952;21.714;2022-07-23T11:45:17;100130.97;;;38.55;25.65
43071;BME280;36278;47.952;21.714;2022-07-23T11:47:42;100125.44;;;38.96;25.53
43071;BME280;36278;47.952;21.714;2022-07-23T11:50:08;100118.38;;;39.40;25.37
43071;BME280;36278;47.952;21.714;2022-07-23T11:52:34;100118.59;;;39.88;24.67
43071;BME280;36278;47.952;21.714;2022-07-23T11:55:02;100124.25;;;40.28;23.62
43071;BME280;36278;47.952;21.714;2022-07-23T11:57:33;100124.41;;;40.54;23.37
43071;BME280;36278;47.952;21.714;2022-07-23T12:02:31;100110.16;;;40.95;22.28
43071;BME280;36278;47.952;21.714;2022-07-23T12:04:56;100107.06;;;40.97;23.25
43071;BME280;36278;47.952;21.714;2022-07-23T12:07:30;100114.56;;;40.96;22.86
43071;BME280;36278;47.952;21.714;2022-07-23T12:12:46;100112.88;;;39.62;23.70
43071;BME280;36278;47.952;21.714;2022-07-23T12:15:16;100102.56;;;39.40;24.18
43071;BME280;36278;47.952;21.714;2022-07-23T12:17:46;100102.00;;;39.30;24.75
43071;BME280;36278;47.952;21.714;2022-07-23T12:20:17;100096.84;;;39.37;24.34
43071;BME280;36278;47.952;21.714;2022-07-23T12:22:46;100094.53;;;39.03;24.33
43071;BME280;36278;47.952;21.714;2022-07-23T12:25:13;100099.69;;;38.82;24.98
43071;BME280;36278;47.952;21.714;2022-07-23T12:27:39;100083.63;;;38.70;25.09
43071;BME280;36278;47.952;21.714;2022-07-23T12:32:50;100085.31;;;37.92;25.25
43071;BME280;36278;47.952;21.714;2022-07-23T12:35:16;100083.41;;;37.74;26.28
43071;BME280;36278;47.952;21.714;2022-07-23T12:37:43;100084.78;;;37.57;25.25
43071;BME280;36278;47.952;21.714;2022-07-23T12:43:29;100064.97;;;37.13;25.16
43071;BME280;36278;47.952;21.714;2022-07-23T12:46:15;100074.34;;;37.36;26.00
43071;BME280;36278;47.952;21.714;2022-07-23T12:51:17;100072.19;;;37.33;23.32
43071;BME280;36278;47.952;21.714;2022-07-23T12:53:45;100059.22;;;37.66;24.14
43071;BME280;36278;47.952;21.714;2022-07-23T12:56:15;100058.25;;;37.56;24.49
43071;BME280;36278;47.952;21.714;2022-07-23T12:58:51;100051.91;;;37.56;24.77
43071;BME280;36278;47.952;21.714;2022-07-23T13:06:29;100049.16;;;37.18;25.64
43071;BME280;36278;47.952;21.714;2022-07-23T13:08:55;100047.00;;;37.15;25.72
43071;BME280;36278;47.952;21.714;2022-07-23T13:11:20;100040.50;;;37.06;25.14
43071;BME280;36278;47.952;21.714;2022-07-23T13:13:46;100034.00;;;37.16;26.24
43071;BME280;36278;47.952;21.714;2022-07-23T13:16:11;100037.63;;;37.30;25.73
43071;BME280;36278;47.952;21.714;2022-07-23T13:18:37;100031.38;;;37.43;25.27
43071;BME280;36278;47.952;21.714;2022-07-23T13:21:03;100026.34;;;37.31;25.26
43071;BME280;36278;47.952;21.714;2022-07-23T13:23:28;100027.06;;;37.37;25.64
43071;BME280;36278;47.952;21.714;2022-07-23T13:25:54;100023.03;;;37.48;25.25
43071;BME280;36278;47.952;21.714;2022-07-23T13:28:21;100022.06;;;37.72;25.12